createdAt,value
2023-01-12T00:03:32.823Z,3.51
2023-01-12T00:08:39.296Z,3.52
2023-01-12T00:13:45.779Z,3.52
2023-01-12T00:18:54.840Z,3.53
2023-01-12T00:24:00.928Z,3.52
2023-01-12T00:29:06.893Z,3.53
2023-01-12T00:34:14.856Z,3.54
2023-01-12T00:39:22.902Z,3.56
2023-01-12T00:44:47.024Z,3.56
2023-01-12T00:49:54.972Z,3.60
2023-01-12T00:55:01.747Z,3.60
2023-01-12T01:00:11.033Z,3.62
2023-01-12T01:05:19.179Z,3.64
2023-01-12T01:10:25.438Z,3.65
2023-01-12T01:15:31.751Z,3.68
2023-01-12T01:20:40.565Z,3.70
2023-01-12T01:25:46.833Z,3.74
2023-01-12T01:30:54.263Z,3.75
2023-01-12T01:36:02.665Z,3.77
2023-01-12T01:41:17.482Z,3.80
2023-01-12T01:46:42.235Z,3.83
2023-01-12T01:51:51.221Z,3.85
2023-01-12T01:56:59.296Z,3.88
2023-01-12T02:02:06.282Z,3.94
2023-01-12T02:07:14.452Z,3.98
2023-01-12T02:12:38.263Z,4.00
2023-01-12T02:18:00.868Z,4.03
2023-01-12T02:23:50.172Z,4.06
2023-01-12T02:29:30.648Z,4.12
2023-01-12T02:34:51.857Z,4.15
2023-01-12T02:40:04.433Z,4.17
2023-01-12T02:45:25.030Z,4.20
2023-01-12T02:50:41.084Z,4.21
2023-01-12T02:55:48.856Z,4.25
2023-01-12T03:00:59.076Z,4.29
2023-01-12T03:06:09.229Z,4.31
2023-01-12T03:11:17.764Z,4.36
2023-01-12T03:16:27.334Z,4.39
2023-01-12T03:21:40.131Z,4.39
2023-01-12T03:26:50.870Z,4.44
2023-01-12T03:31:59.621Z,4.48
2023-01-12T03:37:13.555Z,4.52
2023-01-12T03:42:28.089Z,4.58
2023-01-12T03:47:35.642Z,4.62
2023-01-12T03:52:45.245Z,4.66
2023-01-12T03:57:53.592Z,4.65
2023-01-12T04:03:11.258Z,4.68
2023-01-12T04:08:19.371Z,4.68
2023-01-12T04:13:26.034Z,4.72
2023-01-12T04:18:32.906Z,4.72
2023-01-12T04:23:40.675Z,4.72
2023-01-12T04:28:48.555Z,4.77
2023-01-12T04:33:55.139Z,4.78
2023-01-12T04:39:03.270Z,4.81
2023-01-12T04:44:09.898Z,4.85
2023-01-12T04:49:16.633Z,4.87
2023-01-12T04:54:24.632Z,4.87
2023-01-12T04:59:31.976Z,4.87
2023-01-12T05:04:38.251Z,4.91
2023-01-12T05:10:03.379Z,4.94
2023-01-12T05:15:11.163Z,4.95
2023-01-12T05:20:18.236Z,4.96
2023-01-12T05:25:27.039Z,4.98
2023-01-12T05:30:33.544Z,4.97
2023-01-12T05:35:40.870Z,5.00
2023-01-12T05:40:48.974Z,5.06
2023-01-12T05:45:55.696Z,5.10
2023-01-12T05:51:03.878Z,5.15
2023-01-12T05:56:17.454Z,5.17
2023-01-12T06:01:25.081Z,5.18
2023-01-12T06:06:33.152Z,5.20
2023-01-12T06:11:58.979Z,5.22
2023-01-12T06:17:05.778Z,5.24
2023-01-12T06:22:12.599Z,5.27
2023-01-12T06:27:20.994Z,5.31
2023-01-12T06:32:27.322Z,5.32
2023-01-12T06:37:33.727Z,5.31
2023-01-12T06:42:44.146Z,5.35
2023-01-12T06:47:52.486Z,5.37
2023-01-12T06:53:01.875Z,5.37
2023-01-12T06:58:09.631Z,5.40
2023-01-12T07:03:19.614Z,5.41
2023-01-12T07:08:26.260Z,5.40
2023-01-12T07:13:34.072Z,5.40
2023-01-12T07:18:40.443Z,5.42
2023-01-12T07:23:48.025Z,5.42
2023-01-12T07:28:57.343Z,5.40
2023-01-12T07:34:03.700Z,5.43
2023-01-12T07:39:11.830Z,5.44
2023-01-12T07:44:19.672Z,5.43
2023-01-12T07:49:25.912Z,5.44
2023-01-12T07:54:33.943Z,5.45
2023-01-12T07:59:41.906Z,5.48
2023-01-12T08:04:49.096Z,5.50
2023-01-12T08:09:55.780Z,5.54
2023-01-12T08:15:04.800Z,5.51
2023-01-12T08:20:17.735Z,5.50
2023-01-12T08:25:31.337Z,5.47
2023-01-12T08:30:39.344Z,5.48
2023-01-12T08:35:46.768Z,5.42
2023-01-12T08:41:10.366Z,5.39
2023-01-12T08:46:18.641Z,5.38
2023-01-12T08:51:24.957Z,5.36
2023-01-12T08:56:31.979Z,5.42
2023-01-12T09:01:40.050Z,5.43
2023-01-12T09:06:48.776Z,5.40
2023-01-12T09:11:55.435Z,5.41
2023-01-12T09:17:03.982Z,5.39
2023-01-12T09:22:12.480Z,5.37
2023-01-12T09:27:19.006Z,5.42
2023-01-12T09:32:36.208Z,5.43
2023-01-12T09:37:45.288Z,5.43
2023-01-12T09:43:10.066Z,5.42
2023-01-12T09:48:19.668Z,5.43
2023-01-12T09:53:31.461Z,5.46
2023-01-12T09:59:00.009Z,5.49
2023-01-12T10:04:08.559Z,5.55
2023-01-12T10:09:20.102Z,5.60
2023-01-12T10:15:04.947Z,5.56
2023-01-12T10:20:25.354Z,5.56
2023-01-12T10:25:41.103Z,5.58
2023-01-12T10:30:47.816Z,5.58
2023-01-12T10:36:02.346Z,5.60
2023-01-12T10:41:18.695Z,5.61
2023-01-12T10:46:27.793Z,5.68
2023-01-12T10:51:37.604Z,5.73
2023-01-12T10:56:54.335Z,5.81
2023-01-12T11:02:17.935Z,5.84
2023-01-12T11:07:29.378Z,5.84
2023-01-12T11:12:38.205Z,5.83
2023-01-12T11:18:03.905Z,5.87
2023-01-12T11:23:20.588Z,5.96
2023-01-12T11:28:33.826Z,5.95
2023-01-12T11:33:44.379Z,5.96
2023-01-12T11:38:56.586Z,5.95
2023-01-12T11:44:17.026Z,5.96
2023-01-12T11:49:31.188Z,6.07
2023-01-12T11:54:40.962Z,6.09
2023-01-12T12:00:06.101Z,6.14
2023-01-12T12:05:36.711Z,6.23
2023-01-12T12:10:52.803Z,6.23
2023-01-12T12:16:15.903Z,6.26
2023-01-12T12:21:50.549Z,6.32
2023-01-12T12:27:13.204Z,6.31
2023-01-12T12:32:32.571Z,6.30
2023-01-12T12:37:54.491Z,6.29
2023-01-12T12:43:32.761Z,6.30
2023-01-12T12:48:46.149Z,6.31
2023-01-12T12:53:54.831Z,6.30
2023-01-12T12:59:04.324Z,6.29
2023-01-12T13:04:14.618Z,6.32
2023-01-12T13:09:40.781Z,6.36
2023-01-12T13:15:22.606Z,6.39
2023-01-12T13:20:59.993Z,6.36
2023-01-12T13:26:37.746Z,6.35
2023-01-12T13:31:47.801Z,6.34
2023-01-12T13:37:22.431Z,6.33
2023-01-12T13:42:47.857Z,6.29
2023-01-12T13:47:56.315Z,6.25
2023-01-12T13:53:06.519Z,6.23
2023-01-12T13:58:20.364Z,6.17
2023-01-12T14:04:01.653Z,6.12
2023-01-12T14:09:22.560Z,6.06
2023-01-12T14:15:08.278Z,6.00
2023-01-12T14:20:21.136Z,5.92
2023-01-12T14:25:27.799Z,5.85
2023-01-12T14:30:35.325Z,5.80
2023-01-12T14:35:47.946Z,5.73
2023-01-12T14:41:03.648Z,5.67
2023-01-12T14:46:27.587Z,5.61
2023-01-12T14:51:37.406Z,5.56
2023-01-12T14:56:49.591Z,5.51
2023-01-12T15:02:35.726Z,5.49
2023-01-12T15:07:55.663Z,5.42
2023-01-12T15:13:28.412Z,5.39
2023-01-12T15:18:53.863Z,5.32
2023-01-12T15:24:19.327Z,5.25
2023-01-12T15:29:25.524Z,5.18
2023-01-12T15:34:31.917Z,5.15
2023-01-12T15:39:39.775Z,5.08
2023-01-12T15:44:47.264Z,5.06
2023-01-12T15:49:54.040Z,5.02
2023-01-12T15:55:02.160Z,4.94
2023-01-12T16:00:15.798Z,4.91
2023-01-12T16:05:24.698Z,4.89
2023-01-12T16:10:33.293Z,4.84
2023-01-12T16:15:40.218Z,4.79
2023-01-12T16:20:47.225Z,4.78
2023-01-12T16:26:00.077Z,4.75
2023-01-12T16:31:10.263Z,4.71
2023-01-12T16:36:18.972Z,4.66
2023-01-12T16:41:27.432Z,4.63
2023-01-12T16:46:34.017Z,4.60
2023-01-12T16:51:40.699Z,4.59
2023-01-12T16:56:49.068Z,4.56
2023-01-12T17:01:56.260Z,4.55
2023-01-12T17:07:02.879Z,4.50
2023-01-12T17:12:11.204Z,4.54
2023-01-12T17:17:17.689Z,4.55
2023-01-12T17:22:24.321Z,4.57
2023-01-12T17:27:32.403Z,4.58
2023-01-12T17:32:39.184Z,4.58
2023-01-12T17:37:45.806Z,4.59
2023-01-12T17:43:08.254Z,4.56
2023-01-12T17:48:18.350Z,4.53
2023-01-12T17:53:24.916Z,4.52
2023-01-12T17:58:33.039Z,4.51
2023-01-12T18:03:41.609Z,4.47
2023-01-12T18:08:49.356Z,4.41
2023-01-12T18:13:57.811Z,4.40
2023-01-12T18:19:06.393Z,4.41
2023-01-12T18:24:13.801Z,4.41
2023-01-12T18:29:22.463Z,4.39
2023-01-12T18:34:29.914Z,4.38
2023-01-12T18:39:37.969Z,4.35
2023-01-12T18:44:48.616Z,4.33
2023-01-12T18:49:58.514Z,4.37
2023-01-12T18:55:06.883Z,4.41
2023-01-12T19:00:18.700Z,4.46
2023-01-12T19:05:35.398Z,4.53
2023-01-12T19:10:42.143Z,4.61
2023-01-12T19:16:10.861Z,4.63
2023-01-12T19:21:38.424Z,4.66
2023-01-12T19:27:04.309Z,4.72
2023-01-12T19:32:13.561Z,4.74
2023-01-12T19:37:21.365Z,4.79
2023-01-12T19:42:46.984Z,4.83
2023-01-12T19:47:56.900Z,4.86
2023-01-12T19:53:06.306Z,4.90
2023-01-12T19:58:16.078Z,4.91
2023-01-12T20:03:28.306Z,4.94
2023-01-12T20:08:36.398Z,4.96
2023-01-12T20:13:45.999Z,5.02
2023-01-12T20:19:00.589Z,5.07
2023-01-12T20:24:10.015Z,5.06
2023-01-12T20:29:18.437Z,5.09
2023-01-12T20:34:28.143Z,5.09
2023-01-12T20:39:35.343Z,5.13
2023-01-12T20:44:43.344Z,5.12
2023-01-12T20:49:53.461Z,5.15
2023-01-12T20:55:01.857Z,5.15
2023-01-12T21:00:13.580Z,5.14
2023-01-12T21:05:22.653Z,5.13
2023-01-12T21:10:30.492Z,5.15
2023-01-12T21:15:37.220Z,5.17
2023-01-12T21:20:46.599Z,5.19
2023-01-12T21:25:55.884Z,5.18
2023-01-12T21:31:03.812Z,5.20
2023-01-12T21:36:14.680Z,5.21
2023-01-12T21:41:22.869Z,5.21
2023-01-12T21:46:31.819Z,5.23
2023-01-12T21:51:39.597Z,5.22
2023-01-12T21:56:46.150Z,5.22
2023-01-12T22:01:52.982Z,5.22
2023-01-12T22:07:01.272Z,5.24
2023-01-12T22:12:10.066Z,5.23
2023-01-12T22:17:16.415Z,5.25
2023-01-12T22:22:24.282Z,5.22
2023-01-12T22:27:30.481Z,5.21
2023-01-12T22:32:37.075Z,5.22
2023-01-12T22:37:45.053Z,5.22
2023-01-12T22:43:08.623Z,5.22
2023-01-12T22:48:14.977Z,5.22
2023-01-12T22:53:24.477Z,5.25
2023-01-12T22:58:31.286Z,5.25
2023-01-12T23:03:38.730Z,5.26
2023-01-12T23:08:47.535Z,5.28
2023-01-12T23:13:54.719Z,5.27
2023-01-12T23:19:02.562Z,5.29
2023-01-12T23:24:10.873Z,5.28
2023-01-12T23:29:17.932Z,5.31
2023-01-12T23:39:49.988Z,5.31
2023-01-12T23:44:57.004Z,5.30
2023-01-12T23:50:03.344Z,5.29
2023-01-12T23:55:11.659Z,5.31
